Time;durP1;ratioP1;P1;durP2;ratioP2;P2;SDS_P1;SDS_P2;PMS_P1;PMS_P2;Temp;Humidity;BMP_temperature;BMP_pressure;BME280_temperature;BME280_humidity;BME280_pressure;Samples;Min_cycle;Max_cycle;Signal;HPM_P1;HPM_P2
2023/11/22 00:01:30;;;;;;;;;;;7.20;78.20;;;;;;4995290;28;87077;-44
2023/11/22 00:03:55;;;;;;;;;;;7.20;78.30;;;;;;5000572;28;88129;-44
2023/11/22 00:06:21;;;;;;;;;;;7.30;78.30;;;;;;4996710;28;86969;-43
2023/11/22 00:08:47;;;;;;;;;;;7.30;78.20;;;;;;4997221;28;87011;-43
2023/11/22 00:11:13;;;;;;;;;;;7.30;78.10;;;;;;4998603;28;88528;-44
2023/11/22 00:13:39;;;;;;;;;;;7.30;78.20;;;;;;4998169;28;87101;-44
2023/11/22 00:16:04;;;;;;;;;;;7.30;78.30;;;;;;5002247;28;88952;-42
2023/11/22 00:18:30;;;;;;;;;;;7.30;78.30;;;;;;5001251;28;88471;-43
2023/11/22 00:20:57;;;;;;;;;;;7.30;78.30;;;;;;5003683;28;87094;-44
2023/11/22 00:23:27;;;;;;;;;;;7.30;78.10;;;;;;5002653;28;87718;-44
2023/11/22 00:25:53;;;;;;;;;;;7.30;78.20;;;;;;4997645;28;87764;-44
2023/11/22 00:28:18;;;;;;;;;;;7.30;78.20;;;;;;5004352;28;86759;-44
2023/11/22 00:30:44;;;;;;;;;;;7.30;78.40;;;;;;4999281;28;86829;-43
2023/11/22 00:33:10;;;;;;;;;;;7.30;78.30;;;;;;5002751;28;87700;-44
2023/11/22 00:35:36;;;;;;;;;;;7.30;78.30;;;;;;4998259;28;87818;-43
2023/11/22 00:38:01;;;;;;;;;;;7.30;78.10;;;;;;5006201;28;89151;-45
2023/11/22 00:40:27;;;;;;;;;;;7.30;78.10;;;;;;4999785;28;86973;-44
2023/11/22 00:42:52;;;;;;;;;;;7.30;78.00;;;;;;4998086;28;86870;-45
2023/11/22 00:45:18;;;;;;;;;;;7.30;78.10;;;;;;5001700;28;87412;-44
2023/11/22 00:47:44;;;;;;;;;;;7.30;78.20;;;;;;5003970;28;87041;-46
2023/11/22 00:50:09;;;;;;;;;;;7.30;78.20;;;;;;5000782;28;86893;-44
2023/11/22 00:52:35;;;;;;;;;;;7.40;78.10;;;;;;4996765;28;87602;-44
2023/11/22 00:55:01;;;;;;;;;;;7.40;78.30;;;;;;5004052;28;86941;-44
2023/11/22 00:57:30;;;;;;;;;;;7.30;78.10;;;;;;4999271;28;88522;-46
2023/11/22 00:59:56;;;;;;;;;;;7.30;78.00;;;;;;4996428;28;88107;-45
2023/11/22 01:02:21;;;;;;;;;;;7.40;78.30;;;;;;5003089;28;87762;-44
2023/11/22 01:04:47;;;;;;;;;;;7.40;78.40;;;;;;5000021;28;87595;-45
2023/11/22 01:07:12;;;;;;;;;;;7.40;78.40;;;;;;4999640;28;87060;-44
2023/11/22 01:09:38;;;;;;;;;;;7.40;78.10;;;;;;5006422;28;87561;-43
2023/11/22 01:12:04;;;;;;;;;;;7.40;78.10;;;;;;5001869;28;88542;-44
2023/11/22 01:14:29;;;;;;;;;;;7.40;78.10;;;;;;4991608;27;87043;-45
2023/11/22 01:16:55;;;;;;;;;;;7.40;78.00;;;;;;4999042;28;86760;-44
2023/11/22 01:19:20;;;;;;;;;;;7.40;78.00;;;;;;4996634;28;87107;-44
2023/11/22 01:21:46;;;;;;;;;;;7.40;78.10;;;;;;4996407;28;87002;-44
2023/11/22 01:24:12;;;;;;;;;;;7.40;78.20;;;;;;5000906;28;88627;-44
2023/11/22 01:26:38;;;;;;;;;;;7.40;78.30;;;;;;4992301;28;86945;-44
2023/11/22 01:29:04;;;;;;;;;;;7.40;78.30;;;;;;4996386;28;87919;-44
2023/11/22 01:31:29;;;;;;;;;;;7.50;78.20;;;;;;5000181;28;88371;-45
2023/11/22 01:33:55;;;;;;;;;;;7.40;78.20;;;;;;5004275;28;87188;-45
2023/11/22 01:36:20;;;;;;;;;;;7.40;78.10;;;;;;5006935;28;87437;-44
2023/11/22 01:38:46;;;;;;;;;;;7.50;78.30;;;;;;4996571;28;87232;-45
2023/11/22 01:41:15;;;;;;;;;;;7.40;78.30;;;;;;5000447;28;86597;-44
2023/11/22 01:43:41;;;;;;;;;;;7.50;78.60;;;;;;4994882;28;87514;-44
2023/11/22 01:46:08;;;;;;;;;;;7.50;78.60;;;;;;4998438;28;86681;-44
2023/11/22 01:48:35;;;;;;;;;;;7.50;78.40;;;;;;4996951;28;87889;-44
2023/11/22 01:51:00;;;;;;;;;;;7.50;78.70;;;;;;4997568;28;86985;-44
2023/11/22 01:53:26;;;;;;;;;;;7.50;78.60;;;;;;5000518;28;87030;-46
2023/11/22 01:55:51;;;;;;;;;;;7.50;78.60;;;;;;5002607;28;87020;-44
2023/11/22 01:58:17;;;;;;;;;;;7.50;78.50;;;;;;5000859;28;87061;-44
2023/11/22 02:00:49;;;;;;;;;;;7.50;78.50;;;;;;4998741;28;87975;-44
2023/11/22 02:03:14;;;;;;;;;;;7.50;78.50;;;;;;4997632;28;86921;-43
2023/11/22 02:05:42;;;;;;;;;;;7.50;78.40;;;;;;5000350;28;87218;-44
2023/11/22 02:08:09;;;;;;;;;;;7.50;78.60;;;;;;4997525;28;87189;-44
2023/11/22 02:10:36;;;;;;;;;;;7.50;78.60;;;;;;5001412;28;86750;-44
2023/11/22 02:13:04;;;;;;;;;;;7.50;78.60;;;;;;4994482;28;87992;-44
2023/11/22 02:15:30;;;;;;;;;;;7.50;78.60;;;;;;5000269;28;88006;-43
2023/11/22 02:17:57;;;;;;;;;;;7.50;78.60;;;;;;4997007;28;87377;-44
2023/11/22 02:20:22;;;;;;;;;;;7.50;78.60;;;;;;5002450;28;87036;-44
2023/11/22 02:22:48;;;;;;;;;;;7.50;78.40;;;;;;4998913;28;88674;-43
2023/11/22 02:25:15;;;;;;;;;;;7.50;78.40;;;;;;4998616;28;87077;-43
2023/11/22 02:27:40;;;;;;;;;;;7.50;78.40;;;;;;5000948;28;87958;-44
2023/11/22 02:30:06;;;;;;;;;;;7.50;78.50;;;;;;5000026;28;86683;-44
2023/11/22 02:32:33;;;;;;;;;;;7.50;78.40;;;;;;5000287;28;87366;-44
2023/11/22 02:34:58;;;;;;;;;;;7.50;78.30;;;;;;5002965;28;88207;-45
2023/11/22 02:37:24;;;;;;;;;;;7.50;78.40;;;;;;4992739;28;89444;-44
2023/11/22 02:40:06;;;;;;;;;;;7.60;78.70;;;;;;5002512;28;86947;-44
2023/11/22 02:42:33;;;;;;;;;;;7.60;78.60;;;;;;4994486;28;88676;-44
2023/11/22 02:44:58;;;;;;;;;;;7.50;78.40;;;;;;4992270;28;86985;-44
2023/11/22 02:47:24;;;;;;;;;;;7.60;78.50;;;;;;5003051;28;87994;-45
2023/11/22 02:49:49;;;;;;;;;;;7.60;78.60;;;;;;4998647;28;86844;-44
2023/11/22 02:52:16;;;;;;;;;;;7.60;78.70;;;;;;4995917;28;87074;-43
2023/11/22 02:54:45;;;;;;;;;;;7.60;78.60;;;;;;4999248;28;87849;-44
2023/11/22 02:57:11;;;;;;;;;;;7.60;78.60;;;;;;5001050;28;88732;-44
2023/11/22 02:59:37;;;;;;;;;;;7.60;78.60;;;;;;4998875;28;86977;-44
2023/11/22 03:02:02;;;;;;;;;;;7.60;78.60;;;;;;5000122;28;87992;-44
2023/11/22 03:04:28;;;;;;;;;;;7.60;78.50;;;;;;5000954;28;87044;-44
2023/11/22 03:06:54;;;;;;;;;;;7.60;78.60;;;;;;4997012;28;86784;-44
2023/11/22 03:09:19;;;;;;;;;;;7.60;78.40;;;;;;4995926;28;87831;-44
2023/11/22 03:11:45;;;;;;;;;;;7.60;78.70;;;;;;4997626;28;87101;-44
2023/11/22 03:14:10;;;;;;;;;;;7.60;78.50;;;;;;4998555;28;86998;-44
2023/11/22 03:16:39;;;;;;;;;;;7.60;78.40;;;;;;4995489;28;87677;-44
2023/11/22 03:19:04;;;;;;;;;;;7.60;78.50;;;;;;4999050;28;86224;-44
2023/11/22 03:21:30;;;;;;;;;;;7.60;78.60;;;;;;4994539;28;87397;-44
2023/11/22 03:23:55;;;;;;;;;;;7.60;78.30;;;;;;5000555;28;88146;-44
2023/11/22 03:26:21;;;;;;;;;;;7.60;78.60;;;;;;4990492;28;87840;-43
2023/11/22 03:28:47;;;;;;;;;;;7.60;78.70;;;;;;4997389;28;87518;-43
2023/11/22 03:31:13;;;;;;;;;;;7.60;78.60;;;;;;4995781;28;87165;-45
2023/11/22 03:33:39;;;;;;;;;;;7.60;78.50;;;;;;4997832;28;86999;-45
2023/11/22 03:36:05;;;;;;;;;;;7.60;78.40;;;;;;4998099;28;88675;-45
2023/11/22 03:38:30;;;;;;;;;;;7.60;78.40;;;;;;4995829;28;86983;-44
2023/11/22 03:40:56;;;;;;;;;;;7.60;78.60;;;;;;5002162;28;86986;-44
2023/11/22 03:43:21;;;;;;;;;;;7.60;78.70;;;;;;4999649;28;86783;-44
2023/11/22 03:45:47;;;;;;;;;;;7.60;78.60;;;;;;5000108;28;87003;-44
2023/11/22 03:48:12;;;;;;;;;;;7.70;78.40;;;;;;4997065;28;87512;-44
2023/11/22 03:50:38;;;;;;;;;;;7.70;78.60;;;;;;5000701;28;87973;-44
2023/11/22 03:53:03;;;;;;;;;;;7.70;78.60;;;;;;5008466;28;87615;-44
2023/11/22 03:55:29;;;;;;;;;;;7.70;78.80;;;;;;5003342;28;87565;-44
2023/11/22 03:57:55;;;;;;;;;;;7.70;78.50;;;;;;5000557;28;86983;-44
2023/11/22 04:00:20;;;;;;;;;;;7.70;78.60;;;;;;4997832;28;87892;-44
2023/11/22 04:02:46;;;;;;;;;;;7.70;78.50;;;;;;5000816;28;87578;-44
2023/11/22 04:05:12;;;;;;;;;;;7.70;78.50;;;;;;5003852;28;86929;-45
2023/11/22 04:07:39;;;;;;;;;;;7.70;78.40;;;;;;5005003;28;86706;-44
2023/11/22 04:10:05;;;;;;;;;;;7.70;78.50;;;;;;4997648;28;86994;-43
2023/11/22 04:12:32;;;;;;;;;;;7.70;78.50;;;;;;5003194;28;87688;-45
2023/11/22 04:14:57;;;;;;;;;;;7.70;78.50;;;;;;5000905;28;89324;-45
2023/11/22 04:17:23;;;;;;;;;;;7.70;78.50;;;;;;5002591;28;87454;-43
2023/11/22 04:19:49;;;;;;;;;;;7.70;78.50;;;;;;4999672;28;86752;-44
2023/11/22 04:22:14;;;;;;;;;;;7.70;78.40;;;;;;5003859;28;87733;-44
2023/11/22 04:24:40;;;;;;;;;;;7.70;78.30;;;;;;5005703;28;87435;-44
2023/11/22 04:27:05;;;;;;;;;;;7.70;78.40;;;;;;5001053;28;87596;-44
2023/11/22 04:29:31;;;;;;;;;;;7.70;78.30;;;;;;5000803;28;87128;-45
2023/11/22 04:31:56;;;;;;;;;;;7.70;78.20;;;;;;5001575;28;86285;-44
2023/11/22 04:34:22;;;;;;;;;;;7.70;78.40;;;;;;5000378;28;88495;-44
2023/11/22 04:36:47;;;;;;;;;;;7.80;78.50;;;;;;5000404;28;87066;-44
2023/11/22 04:39:13;;;;;;;;;;;7.70;78.10;;;;;;4998193;28;88336;-44
2023/11/22 04:41:39;;;;;;;;;;;7.70;78.30;;;;;;5002499;28;87629;-45
2023/11/22 04:44:05;;;;;;;;;;;7.70;78.10;;;;;;4997887;28;87057;-43
2023/11/22 04:46:30;;;;;;;;;;;7.70;78.20;;;;;;5001034;28;87513;-43
2023/11/22 04:48:57;;;;;;;;;;;7.70;78.20;;;;;;5000878;28;87817;-45
2023/11/22 04:51:24;;;;;;;;;;;7.80;78.20;;;;;;4998855;28;87724;-43
2023/11/22 04:53:49;;;;;;;;;;;7.70;78.40;;;;;;4998224;28;88619;-43
2023/11/22 04:56:16;;;;;;;;;;;7.70;78.40;;;;;;5000622;28;86310;-45
2023/11/22 04:58:42;;;;;;;;;;;7.80;78.20;;;;;;5002332;28;87021;-44
2023/11/22 05:01:10;;;;;;;;;;;7.70;78.30;;;;;;4999042;28;87549;-45
2023/11/22 05:03:37;;;;;;;;;;;7.80;78.20;;;;;;4997102;28;87956;-44
2023/11/22 05:06:03;;;;;;;;;;;7.70;78.30;;;;;;4999925;28;90530;-44
2023/11/22 05:08:28;;;;;;;;;;;7.70;78.20;;;;;;4999389;28;87365;-44
2023/11/22 05:10:54;;;;;;;;;;;7.70;78.30;;;;;;4997295;28;87061;-43
2023/11/22 05:13:19;;;;;;;;;;;7.80;78.30;;;;;;5000318;28;88540;-43
2023/11/22 05:15:45;;;;;;;;;;;7.80;78.20;;;;;;5003595;28;86964;-43
2023/11/22 05:18:10;;;;;;;;;;;7.80;78.20;;;;;;5002295;28;87030;-44
2023/11/22 05:20:36;;;;;;;;;;;7.80;78.30;;;;;;5000426;28;86749;-45
2023/11/22 05:23:02;;;;;;;;;;;7.80;78.40;;;;;;4997386;28;86921;-44
2023/11/22 05:25:27;;;;;;;;;;;7.80;78.40;;;;;;4997184;28;87932;-44
2023/11/22 05:27:53;;;;;;;;;;;7.80;78.50;;;;;;4996754;28;88453;-45
2023/11/22 05:30:18;;;;;;;;;;;7.80;78.40;;;;;;5003259;28;87038;-44
2023/11/22 05:32:44;;;;;;;;;;;7.80;78.50;;;;;;5002168;28;87944;-45
2023/11/22 05:35:09;;;;;;;;;;;7.80;78.20;;;;;;4996089;28;86883;-44
2023/11/22 05:37:36;;;;;;;;;;;7.80;78.50;;;;;;4999929;28;86944;-44
2023/11/22 05:40:03;;;;;;;;;;;7.80;78.10;;;;;;4996670;28;88797;-44
2023/11/22 05:42:28;;;;;;;;;;;7.80;78.50;;;;;;4993375;28;86917;-44
2023/11/22 05:44:54;;;;;;;;;;;7.80;78.30;;;;;;4994963;28;86865;-44
2023/11/22 05:47:19;;;;;;;;;;;7.80;78.40;;;;;;4995833;28;86908;-44
2023/11/22 05:49:45;;;;;;;;;;;7.80;78.30;;;;;;5005284;28;87918;-43
2023/11/22 05:52:10;;;;;;;;;;;7.90;78.50;;;;;;5001475;28;88579;-43
2023/11/22 05:54:36;;;;;;;;;;;7.80;78.40;;;;;;5002495;28;87050;-45
2023/11/22 05:57:02;;;;;;;;;;;7.80;78.30;;;;;;4995496;28;87440;-45
2023/11/22 05:59:27;;;;;;;;;;;7.90;78.30;;;;;;4998370;28;88408;-43
2023/11/22 06:01:53;;;;;;;;;;;7.90;78.50;;;;;;4993378;28;87237;-44
2023/11/22 06:04:19;;;;;;;;;;;7.90;78.30;;;;;;4997033;28;88034;-44
2023/11/22 06:06:44;;;;;;;;;;;7.80;78.50;;;;;;5001855;28;88508;-44
2023/11/22 06:09:13;;;;;;;;;;;7.90;78.40;;;;;;5001105;28;86383;-44
2023/11/22 06:11:39;;;;;;;;;;;7.90;78.60;;;;;;4994429;28;88052;-44
2023/11/22 06:14:04;;;;;;;;;;;7.90;78.60;;;;;;4998952;28;87008;-43
2023/11/22 06:16:30;;;;;;;;;;;7.90;78.40;;;;;;5003686;28;87916;-44
2023/11/22 06:18:55;;;;;;;;;;;7.90;78.40;;;;;;4997400;28;87736;-44
2023/11/22 06:21:24;;;;;;;;;;;7.90;78.40;;;;;;4993365;28;87014;-44
2023/11/22 06:23:49;;;;;;;;;;;7.90;78.30;;;;;;4995332;28;86969;-44
2023/11/22 06:26:15;;;;;;;;;;;7.90;78.50;;;;;;4995960;28;88673;-44
2023/11/22 06:28:40;;;;;;;;;;;7.90;78.30;;;;;;4995468;28;87160;-46
2023/11/22 06:31:06;;;;;;;;;;;7.90;78.20;;;;;;4998636;28;86975;-44
2023/11/22 06:33:32;;;;;;;;;;;7.90;78.30;;;;;;5000138;28;86037;-44
2023/11/22 06:35:57;;;;;;;;;;;7.90;78.30;;;;;;5000076;28;87022;-45
2023/11/22 06:38:23;;;;;;;;;;;7.90;78.40;;;;;;4997439;28;87741;-44
2023/11/22 06:40:48;;;;;;;;;;;7.90;78.40;;;;;;4995793;28;88071;-45
2023/11/22 06:43:14;;;;;;;;;;;7.90;78.30;;;;;;4995302;28;87680;-44
2023/11/22 06:45:39;;;;;;;;;;;7.90;78.30;;;;;;5000359;28;87499;-44
2023/11/22 06:48:05;;;;;;;;;;;7.90;78.10;;;;;;4992898;28;87000;-44
2023/11/22 06:50:30;;;;;;;;;;;7.90;78.30;;;;;;4994045;28;86970;-44
2023/11/22 06:52:56;;;;;;;;;;;7.90;78.10;;;;;;4995265;28;86907;-44
2023/11/22 06:55:22;;;;;;;;;;;7.90;78.20;;;;;;5000110;28;87940;-44
2023/11/22 06:57:47;;;;;;;;;;;7.90;78.20;;;;;;4996991;28;88110;-43
2023/11/22 07:00:13;;;;;;;;;;;7.90;78.10;;;;;;4998317;28;87210;-44
2023/11/22 07:02:38;;;;;;;;;;;7.90;78.10;;;;;;4995718;28;87694;-44
2023/11/22 07:05:10;;;;;;;;;;;7.90;78.40;;;;;;4997033;28;88631;-43
2023/11/22 07:07:36;;;;;;;;;;;8.00;78.30;;;;;;4995601;28;87190;-44
2023/11/22 07:10:05;;;;;;;;;;;7.90;78.00;;;;;;5001225;28;87893;-44
2023/11/22 07:12:31;;;;;;;;;;;8.00;78.10;;;;;;4998229;28;88347;-43
2023/11/22 07:14:56;;;;;;;;;;;7.90;78.20;;;;;;4993847;28;87531;-44
2023/11/22 07:17:22;;;;;;;;;;;8.00;78.10;;;;;;4991478;28;87929;-44
2023/11/22 07:19:48;;;;;;;;;;;8.00;78.20;;;;;;4999578;28;88435;-44
2023/11/22 07:22:19;;;;;;;;;;;8.00;78.10;;;;;;4997155;28;86655;-44
2023/11/22 07:24:45;;;;;;;;;;;7.90;78.10;;;;;;4994520;28;88629;-44
2023/11/22 07:27:14;;;;;;;;;;;8.00;78.30;;;;;;4994542;28;87271;-44
2023/11/22 07:29:40;;;;;;;;;;;8.00;78.10;;;;;;4992935;28;88720;-44
2023/11/22 07:32:07;;;;;;;;;;;8.00;78.10;;;;;;4999552;28;87700;-44
2023/11/22 07:34:33;;;;;;;;;;;8.00;78.00;;;;;;4994722;28;87038;-43
2023/11/22 07:36:59;;;;;;;;;;;8.00;77.90;;;;;;4995343;28;87910;-44
2023/11/22 07:39:27;;;;;;;;;;;8.00;78.10;;;;;;4992745;28;87531;-45
2023/11/22 07:41:53;;;;;;;;;;;8.00;78.10;;;;;;4998549;28;87445;-44
2023/11/22 07:44:18;;;;;;;;;;;8.00;78.00;;;;;;4997036;28;87550;-45
2023/11/22 07:46:44;;;;;;;;;;;8.00;78.10;;;;;;4996866;28;86547;-45
2023/11/22 07:49:10;;;;;;;;;;;8.00;78.00;;;;;;4991934;28;87236;-44
2023/11/22 07:51:37;;;;;;;;;;;8.00;78.10;;;;;;4998808;28;87735;-45
2023/11/22 07:54:02;;;;;;;;;;;8.00;77.90;;;;;;4993972;28;87982;-45
2023/11/22 07:56:29;;;;;;;;;;;8.10;78.10;;;;;;4994468;28;87631;-44
2023/11/22 07:58:54;;;;;;;;;;;8.00;78.00;;;;;;4998788;28;88516;-44
2023/11/22 08:01:20;;;;;;;;;;;8.00;77.90;;;;;;4999155;28;87145;-44
2023/11/22 08:03:45;;;;;;;;;;;8.00;78.00;;;;;;4996349;28;87144;-44
2023/11/22 08:06:11;;;;;;;;;;;8.00;77.80;;;;;;5000010;28;87871;-43
2023/11/22 08:08:39;;;;;;;;;;;8.00;77.90;;;;;;4998247;28;88743;-44
2023/11/22 08:11:05;;;;;;;;;;;8.00;78.00;;;;;;4995615;28;86755;-44
2023/11/22 08:13:31;;;;;;;;;;;8.10;77.90;;;;;;4995418;28;87007;-44
2023/11/22 08:15:57;;;;;;;;;;;8.10;77.90;;;;;;4995770;28;87002;-44
2023/11/22 08:18:22;;;;;;;;;;;8.10;77.90;;;;;;4991650;28;89491;-44
2023/11/22 08:20:48;;;;;;;;;;;8.10;78.00;;;;;;4999234;28;87160;-45
2023/11/22 08:23:14;;;;;;;;;;;8.10;77.90;;;;;;4997703;28;87348;-44
2023/11/22 08:25:40;;;;;;;;;;;8.10;77.80;;;;;;4999994;28;86953;-44
2023/11/22 08:28:08;;;;;;;;;;;8.10;77.90;;;;;;4995570;28;86927;-45
2023/11/22 08:30:35;;;;;;;;;;;8.10;77.90;;;;;;4996973;28;87889;-44
2023/11/22 08:33:02;;;;;;;;;;;8.10;77.80;;;;;;4996616;28;88074;-45
2023/11/22 08:35:27;;;;;;;;;;;8.10;77.80;;;;;;5001059;28;87843;-44
2023/11/22 08:37:53;;;;;;;;;;;8.10;77.90;;;;;;5002385;28;87530;-44
2023/11/22 08:40:20;;;;;;;;;;;8.10;77.80;;;;;;4997307;28;87210;-44
2023/11/22 08:42:46;;;;;;;;;;;8.10;77.90;;;;;;5002683;28;87806;-44
2023/11/22 08:45:11;;;;;;;;;;;8.10;77.70;;;;;;5001771;28;87717;-43
2023/11/22 08:47:37;;;;;;;;;;;8.10;78.00;;;;;;4999759;28;86947;-43
2023/11/22 08:50:03;;;;;;;;;;;8.20;77.70;;;;;;4998434;28;87508;-43
2023/11/22 08:52:30;;;;;;;;;;;8.10;77.70;;;;;;5002814;28;86913;-44
2023/11/22 08:54:56;;;;;;;;;;;8.10;77.70;;;;;;4997669;28;87929;-44
2023/11/22 08:57:21;;;;;;;;;;;8.20;78.40;;;;;;5001412;28;88593;-44
2023/11/22 08:59:47;;;;;;;;;;;8.20;77.80;;;;;;5000630;28;86107;-44
2023/11/22 09:02:14;;;;;;;;;;;8.20;77.90;;;;;;5000789;28;87169;-45
2023/11/22 09:04:41;;;;;;;;;;;8.20;77.70;;;;;;4997951;28;88662;-43
2023/11/22 09:07:07;;;;;;;;;;;8.20;77.70;;;;;;5001285;28;87948;-44
2023/11/22 09:09:34;;;;;;;;;;;8.20;77.90;;;;;;5000179;28;87410;-44
2023/11/22 09:12:00;;;;;;;;;;;8.20;78.50;;;;;;5001187;28;87071;-44
2023/11/22 09:14:26;;;;;;;;;;;8.20;77.70;;;;;;4996264;28;88064;-45
2023/11/22 09:16:54;;;;;;;;;;;8.20;77.90;;;;;;5000690;28;87377;-43
2023/11/22 09:19:23;;;;;;;;;;;8.20;77.90;;;;;;4997199;28;87172;-43
2023/11/22 09:21:49;;;;;;;;;;;8.20;77.80;;;;;;5002249;28;87660;-44
2023/11/22 09:24:14;;;;;;;;;;;8.20;77.90;;;;;;4996176;28;87867;-44
2023/11/22 09:26:41;;;;;;;;;;;8.20;78.00;;;;;;4998208;28;87449;-43
2023/11/22 09:29:06;;;;;;;;;;;8.20;77.80;;;;;;4999261;28;86921;-44
2023/11/22 09:31:32;;;;;;;;;;;8.20;77.80;;;;;;5002686;28;88027;-44
2023/11/22 09:33:57;;;;;;;;;;;8.20;78.00;;;;;;4994864;28;88161;-44
2023/11/22 09:36:27;;;;;;;;;;;8.20;77.90;;;;;;5002638;28;87628;-44
2023/11/22 09:38:52;;;;;;;;;;;8.20;77.90;;;;;;5001803;28;87037;-45
2023/11/22 09:41:18;;;;;;;;;;;8.20;77.90;;;;;;4996435;28;87094;-44
2023/11/22 09:43:46;;;;;;;;;;;8.30;78.50;;;;;;4997294;28;88601;-44
2023/11/22 09:46:12;;;;;;;;;;;8.30;77.90;;;;;;4994926;28;87137;-44
2023/11/22 09:48:39;;;;;;;;;;;8.20;78.00;;;;;;5000535;28;86736;-46
2023/11/22 09:51:09;;;;;;;;;;;8.30;78.10;;;;;;4998649;28;88777;-45
2023/11/22 09:53:47;;;;;;;;;;;8.30;78.00;;;;;;5000315;28;89012;-43
2023/11/22 09:56:15;;;;;;;;;;;8.30;77.90;;;;;;5000128;28;88428;-43
2023/11/22 09:58:44;;;;;;;;;;;8.30;78.10;;;;;;5000610;28;87073;-43
2023/11/22 10:01:11;;;;;;;;;;;8.30;78.20;;;;;;4997366;28;87960;-45
2023/11/22 10:03:37;;;;;;;;;;;8.30;78.00;;;;;;4996391;28;88859;-44
2023/11/22 10:06:04;;;;;;;;;;;8.30;78.20;;;;;;4999925;28;87030;-44
2023/11/22 10:08:30;;;;;;;;;;;8.30;78.00;;;;;;5000519;28;88773;-44
2023/11/22 10:10:55;;;;;;;;;;;8.30;78.10;;;;;;4996115;28;87530;-45
2023/11/22 10:13:22;;;;;;;;;;;8.30;78.20;;;;;;4996119;28;86245;-44
2023/11/22 10:15:48;;;;;;;;;;;8.30;78.10;;;;;;4996423;28;87532;-44
2023/11/22 10:18:14;;;;;;;;;;;8.30;78.20;;;;;;4998615;28;86982;-45
2023/11/22 10:20:40;;;;;;;;;;;8.30;77.90;;;;;;4993741;28;88850;-44
2023/11/22 10:23:09;;;;;;;;;;;8.40;77.90;;;;;;4997504;28;87571;-43
2023/11/22 10:25:45;;;;;;;;;;;8.30;77.90;;;;;;4992013;28;87058;-44
2023/11/22 10:28:11;;;;;;;;;;;8.30;78.00;;;;;;4991835;28;87003;-44
2023/11/22 10:30:37;;;;;;;;;;;8.40;78.10;;;;;;4997533;28;86831;-44
2023/11/22 10:33:02;;;;;;;;;;;8.40;78.00;;;;;;5008315;28;87090;-46
2023/11/22 10:35:28;;;;;;;;;;;8.40;78.10;;;;;;4996029;28;87437;-44
2023/11/22 10:37:53;;;;;;;;;;;8.40;78.30;;;;;;5000214;28;87362;-44
2023/11/22 10:40:20;;;;;;;;;;;8.30;78.10;;;;;;4998441;28;87080;-43
2023/11/22 10:42:48;;;;;;;;;;;8.40;78.30;;;;;;4994724;28;87413;-44
2023/11/22 10:45:15;;;;;;;;;;;8.40;78.30;;;;;;5002106;28;87978;-44
2023/11/22 10:47:42;;;;;;;;;;;8.40;78.00;;;;;;4996430;28;87038;-45
2023/11/22 10:50:09;;;;;;;;;;;8.40;78.30;;;;;;4993927;28;87443;-44
2023/11/22 10:52:36;;;;;;;;;;;8.40;78.30;;;;;;4997996;28;87016;-44
2023/11/22 10:55:03;;;;;;;;;;;8.40;78.40;;;;;;5001639;28;88248;-45
2023/11/22 10:57:31;;;;;;;;;;;8.40;78.40;;;;;;4994377;28;87042;-44
2023/11/22 11:00:00;;;;;;;;;;;8.40;78.50;;;;;;4997133;28;87082;-44
2023/11/22 11:02:27;;;;;;;;;;;8.40;78.50;;;;;;4998236;28;87819;-44
2023/11/22 11:04:59;;;;;;;;;;;8.40;78.40;;;;;;4998902;28;87640;-44
2023/11/22 11:07:28;;;;;;;;;;;8.40;78.60;;;;;;4996121;28;88035;-46
2023/11/22 11:09:55;;;;;;;;;;;8.40;78.50;;;;;;4995753;28;89348;-44
2023/11/22 11:12:21;;;;;;;;;;;8.30;78.40;;;;;;4998234;28;86832;-44
2023/11/22 11:14:47;;;;;;;;;;;8.40;78.60;;;;;;4994258;28;86976;-45
2023/11/22 11:17:14;;;;;;;;;;;8.30;78.60;;;;;;4995914;28;88533;-44
2023/11/22 11:19:41;;;;;;;;;;;8.40;78.60;;;;;;4997784;28;87838;-44
2023/11/22 11:22:13;;;;;;;;;;;8.40;78.50;;;;;;4997971;28;88449;-44
2023/11/22 11:24:40;;;;;;;;;;;8.40;78.50;;;;;;4997331;28;87609;-44
2023/11/22 11:27:06;;;;;;;;;;;8.40;78.60;;;;;;4997008;28;87916;-44
2023/11/22 11:29:36;;;;;;;;;;;8.40;78.60;;;;;;5000912;28;87387;-44
2023/11/22 11:32:03;;;;;;;;;;;8.40;78.30;;;;;;4998692;28;87468;-44
2023/11/22 11:34:29;;;;;;;;;;;8.40;78.60;;;;;;4995112;28;87901;-44
2023/11/22 11:36:54;;;;;;;;;;;8.40;78.60;;;;;;4989985;28;88320;-44
2023/11/22 11:39:26;;;;;;;;;;;8.40;78.60;;;;;;5001815;28;87028;-43
2023/11/22 11:41:52;;;;;;;;;;;8.40;78.50;;;;;;4997638;28;88667;-44
2023/11/22 11:44:19;;;;;;;;;;;8.50;78.50;;;;;;4992389;28;87444;-44
2023/11/22 11:46:45;;;;;;;;;;;8.40;78.50;;;;;;5000915;28;88199;-43
2023/11/22 11:49:14;;;;;;;;;;;8.50;78.30;;;;;;4999926;28;89303;-45
2023/11/22 11:51:40;;;;;;;;;;;8.50;78.60;;;;;;4998106;28;86213;-44
2023/11/22 11:54:05;;;;;;;;;;;8.50;78.60;;;;;;4994513;28;87130;-44
2023/11/22 11:56:32;;;;;;;;;;;8.50;78.60;;;;;;4993433;28;87824;-44
2023/11/22 11:58:59;;;;;;;;;;;8.50;78.70;;;;;;5001733;28;87974;-44
2023/11/22 12:01:27;;;;;;;;;;;8.50;78.60;;;;;;4994535;28;87786;-44
2023/11/22 12:03:52;;;;;;;;;;;8.50;78.70;;;;;;4997921;28;87811;-44
2023/11/22 12:06:19;;;;;;;;;;;8.50;79.10;;;;;;5001789;28;87828;-44
2023/11/22 12:08:45;;;;;;;;;;;8.50;78.90;;;;;;4999215;28;87368;-44
2023/11/22 12:11:11;;;;;;;;;;;8.50;78.90;;;;;;4991082;28;87110;-44
2023/11/22 12:13:46;;;;;;;;;;;8.50;78.90;;;;;;5000982;28;86903;-44
2023/11/22 12:16:14;;;;;;;;;;;8.50;79.40;;;;;;5003815;28;87821;-44
2023/11/22 12:18:44;;;;;;;;;;;8.50;78.80;;;;;;5003356;28;87105;-43
2023/11/22 12:21:13;;;;;;;;;;;8.50;78.90;;;;;;4997042;28;87460;-44
2023/11/22 12:23:40;;;;;;;;;;;8.50;79.00;;;;;;4997262;28;87928;-45
2023/11/22 12:26:09;;;;;;;;;;;8.60;79.00;;;;;;4996759;28;87693;-44
2023/11/22 12:28:34;;;;;;;;;;;8.60;79.10;;;;;;5001570;28;86906;-45
2023/11/22 12:31:07;;;;;;;;;;;8.60;79.10;;;;;;5003855;28;87031;-45
2023/11/22 12:33:32;;;;;;;;;;;8.60;79.20;;;;;;4999870;28;86899;-44
2023/11/22 12:35:58;;;;;;;;;;;8.50;79.20;;;;;;5000547;28;87437;-44
2023/11/22 12:38:23;;;;;;;;;;;8.60;79.20;;;;;;4997395;28;86997;-45
2023/11/22 12:40:49;;;;;;;;;;;8.60;79.40;;;;;;4996238;28;86846;-44
2023/11/22 12:43:15;;;;;;;;;;;8.60;79.30;;;;;;4999511;28;88458;-44
2023/11/22 12:45:41;;;;;;;;;;;8.60;79.20;;;;;;5002904;28;87950;-45
2023/11/22 12:48:19;;;;;;;;;;;8.60;79.20;;;;;;4998251;28;89517;-43
2023/11/22 12:50:45;;;;;;;;;;;8.60;79.30;;;;;;5003777;28;86885;-44
2023/11/22 12:53:14;;;;;;;;;;;8.60;79.20;;;;;;4997991;28;86988;-44
2023/11/22 12:55:48;;;;;;;;;;;8.60;79.60;;;;;;4997429;28;88393;-44
2023/11/22 12:58:14;;;;;;;;;;;8.60;79.50;;;;;;4998937;28;87054;-44
2023/11/22 13:00:40;;;;;;;;;;;8.60;79.40;;;;;;5003513;28;87082;-44
2023/11/22 13:03:11;;;;;;;;;;;8.60;79.40;;;;;;5000218;28;86861;-44
2023/11/22 13:05:42;;;;;;;;;;;8.60;79.20;;;;;;5000222;28;86470;-43
2023/11/22 13:08:10;;;;;;;;;;;8.70;79.30;;;;;;4995160;28;87374;-44
2023/11/22 13:10:36;;;;;;;;;;;8.70;79.60;;;;;;4999612;28;87162;-45
2023/11/22 13:13:02;;;;;;;;;;;8.60;79.50;;;;;;5000081;28;88108;-43
2023/11/22 13:15:27;;;;;;;;;;;8.70;79.60;;;;;;4993426;28;87125;-43
2023/11/22 13:17:55;;;;;;;;;;;8.70;79.20;;;;;;4997209;28;87239;-44
2023/11/22 13:20:25;;;;;;;;;;;8.70;79.70;;;;;;5003564;28;87632;-44
2023/11/22 13:22:51;;;;;;;;;;;8.70;79.60;;;;;;4997875;28;88504;-45
2023/11/22 13:25:19;;;;;;;;;;;8.70;79.60;;;;;;5000518;28;87052;-44
2023/11/22 13:27:46;;;;;;;;;;;8.70;79.40;;;;;;4998803;28;87031;-44
2023/11/22 13:30:12;;;;;;;;;;;8.70;79.60;;;;;;5000745;28;86243;-45
2023/11/22 13:32:41;;;;;;;;;;;8.70;79.60;;;;;;4998070;28;87001;-44
2023/11/22 13:35:12;;;;;;;;;;;8.70;79.80;;;;;;4997138;28;88470;-44
2023/11/22 13:37:41;;;;;;;;;;;8.70;79.50;;;;;;4995682;28;88382;-44
2023/11/22 13:40:11;;;;;;;;;;;8.70;79.80;;;;;;4998749;28;87925;-44
2023/11/22 13:42:37;;;;;;;;;;;8.70;79.60;;;;;;4994948;28;87565;-44
2023/11/22 13:45:03;;;;;;;;;;;8.70;79.50;;;;;;4994743;28;88293;-43
2023/11/22 13:47:29;;;;;;;;;;;8.80;79.60;;;;;;5000239;28;86933;-44
2023/11/22 13:49:54;;;;;;;;;;;8.70;79.60;;;;;;5004259;28;88460;-45
2023/11/22 13:52:20;;;;;;;;;;;8.70;79.60;;;;;;4996605;28;87150;-44
2023/11/22 13:54:46;;;;;;;;;;;8.80;79.70;;;;;;5000063;28;86260;-45
2023/11/22 13:57:11;;;;;;;;;;;8.80;79.60;;;;;;4995376;28;87085;-45
2023/11/22 13:59:37;;;;;;;;;;;8.80;79.50;;;;;;4999346;28;87937;-44
2023/11/22 14:02:02;;;;;;;;;;;8.80;79.60;;;;;;4998169;28;87962;-44
2023/11/22 14:04:28;;;;;;;;;;;8.80;79.60;;;;;;4998826;28;86928;-43
2023/11/22 14:06:53;;;;;;;;;;;8.70;79.90;;;;;;5003064;28;87488;-44
2023/11/22 14:09:19;;;;;;;;;;;8.80;79.70;;;;;;4999877;28;88580;-45
2023/11/22 14:11:45;;;;;;;;;;;8.70;79.90;;;;;;4996547;28;87924;-43
2023/11/22 14:14:11;;;;;;;;;;;8.70;79.90;;;;;;4995412;28;87414;-44
2023/11/22 14:16:38;;;;;;;;;;;8.80;80.00;;;;;;5000383;28;87835;-44
2023/11/22 14:19:05;;;;;;;;;;;8.80;80.10;;;;;;4992864;28;88206;-46
2023/11/22 14:21:32;;;;;;;;;;;8.80;80.10;;;;;;4997689;28;88438;-43
2023/11/22 14:23:58;;;;;;;;;;;8.80;79.70;;;;;;4997741;28;87621;-44
2023/11/22 14:26:23;;;;;;;;;;;8.80;79.80;;;;;;4996534;28;87895;-45